Time,TemperatureF,DewpointF,PressureIn,WindDirection,WindDirectionDegrees,WindSpeedMPH,WindSpeedGustMPH,Humidity,HourlyPrecipIn,Conditions,Clouds,dailyrainin,SolarRadiationWatts/m^2,SoftwareType,DateUTC
2013-08-31 00:01:00,53.0,52.0,-100.00,South,171,0.0,1.0,98,0.00,,,0.31,0.000000,,2013-08-31 07:01:00,
2013-08-31 00:12:00,53.0,52.0,-100.00,South,171,0.0,1.0,98,0.00,,,0.31,0.000000,,2013-08-31 07:12:00,
2013-08-31 00:22:00,53.0,52.0,-100.00,South,171,0.0,1.0,98,0.00,,,0.31,0.000000,,2013-08-31 07:22:00,
2013-08-31 00:52:00,52.0,52.0,-100.00,SE,128,0.0,2.0,99,0.00,,,0.31,0.000000,,2013-08-31 07:52:00,
2013-08-31 01:03:00,52.0,52.0,-100.00,SE,128,0.0,2.0,99,0.00,,,0.31,0.000000,,2013-08-31 08:03:00,
2013-08-31 01:12:00,52.0,52.0,-100.00,SE,128,0.0,2.0,99,0.00,,,0.31,0.000000,,2013-08-31 08:12:00,
2013-08-31 01:22:00,52.0,52.0,-100.00,SE,128,0.0,2.0,99,0.00,,,0.31,0.000000,,2013-08-31 08:22:00,
2013-08-31 01:52:00,51.0,51.0,-100.00,South,177,0.0,3.0,99,0.00,,,0.31,0.000000,,2013-08-31 08:52:00,
2013-08-31 02:02:00,51.0,51.0,-100.00,South,177,0.0,3.0,99,0.00,,,0.31,0.000000,,2013-08-31 09:02:00,
2013-08-31 02:12:00,51.0,51.0,-100.00,South,177,0.0,3.0,99,0.00,,,0.31,0.000000,,2013-08-31 09:12:00,
2013-08-31 02:23:00,51.0,51.0,-100.00,South,177,0.0,3.0,99,0.00,,,0.31,0.000000,,2013-08-31 09:23:00,
2013-08-31 02:53:00,51.0,51.0,-100.00,SSW,193,0.0,2.0,99,0.00,,,0.27,0.000000,,2013-08-31 09:53:00,
2013-08-31 03:03:00,51.0,51.0,-100.00,SSW,193,0.0,2.0,99,0.00,,,0.27,0.000000,,2013-08-31 10:03:00,
2013-08-31 03:12:00,51.0,51.0,-100.00,SSW,193,0.0,2.0,99,0.00,,,0.27,0.000000,,2013-08-31 10:12:00,
2013-08-31 03:23:00,51.0,51.0,-100.00,SSW,193,0.0,2.0,99,0.00,,,0.27,0.000000,,2013-08-31 10:23:00,
2013-08-31 03:53:00,51.0,51.0,-100.00,WSW,249,1.0,3.0,99,0.01,,,0.21,0.000000,,2013-08-31 10:53:00,
2013-08-31 04:02:00,51.0,51.0,-100.00,WSW,249,1.0,3.0,99,0.01,,,0.21,0.000000,,2013-08-31 11:02:00,
2013-08-31 04:12:00,51.0,51.0,-100.00,WSW,249,1.0,3.0,99,0.01,,,0.21,0.000000,,2013-08-31 11:12:00,
2013-08-31 04:21:00,51.0,51.0,-100.00,WSW,249,1.0,3.0,99,0.01,,,0.21,0.000000,,2013-08-31 11:21:00,
2013-08-31 04:52:00,51.0,50.0,-100.00,South,175,1.0,3.0,97,0.00,,,-99.99,0.000000,,2013-08-31 11:52:00,
2013-08-31 05:02:00,51.0,50.0,-100.00,South,175,1.0,3.0,97,0.00,,,-99.99,0.000000,,2013-08-31 12:02:00,
2013-08-31 05:11:00,51.0,50.0,-100.00,South,175,1.0,3.0,97,0.00,,,-99.99,0.000000,,2013-08-31 12:11:00,
2013-08-31 05:21:00,51.0,50.0,-100.00,South,175,1.0,3.0,97,0.00,,,-99.99,0.000000,,2013-08-31 12:21:00,
2013-08-31 05:52:00,50.0,49.0,-100.00,SE,142,1.0,4.0,95,0.00,,,0.06,0.000000,,2013-08-31 12:52:00,
2013-08-31 06:01:00,50.0,49.0,-100.00,SE,142,1.0,4.0,95,0.00,,,0.06,0.000000,,2013-08-31 13:01:00,
2013-08-31 06:11:00,50.0,49.0,-100.00,SE,142,1.0,4.0,95,0.00,,,0.06,0.000000,,2013-08-31 13:11:00,
2013-08-31 06:22:00,50.0,49.0,-100.00,SE,142,1.0,4.0,95,0.00,,,0.06,0.000000,,2013-08-31 13:22:00,
2013-08-31 06:52:00,50.0,48.0,-100.00,South,191,0.0,4.0,93,0.00,,,0.06,0.000000,,2013-08-31 13:52:00,
2013-08-31 07:02:00,50.0,48.0,-100.00,South,191,0.0,4.0,93,0.00,,,0.06,0.000000,,2013-08-31 14:02:00,
2013-08-31 07:11:00,50.0,48.0,-100.00,South,191,0.0,4.0,93,0.00,,,0.06,0.000000,,2013-08-31 14:11:00,
2013-08-31 07:21:00,50.0,48.0,-100.00,South,191,0.0,4.0,93,0.00,,,0.06,0.000000,,2013-08-31 14:21:00,
2013-08-31 07:52:00,50.0,48.0,-100.00,SSE,161,1.0,3.0,92,0.00,,,0.02,18.000000,,2013-08-31 14:52:00,
2013-08-31 08:01:00,50.0,48.0,-100.00,SSE,161,1.0,3.0,92,0.00,,,0.02,18.000000,,2013-08-31 15:01:00,
2013-08-31 08:11:00,50.0,48.0,-100.00,SSE,161,1.0,3.0,92,0.00,,,0.02,18.000000,,2013-08-31 15:11:00,
2013-08-31 08:22:00,50.0,48.0,-100.00,SSE,161,1.0,3.0,92,0.00,,,0.02,18.000000,,2013-08-31 15:22:00,
2013-08-31 08:25:00,57.0,53.0,-100.00,ESE,122,0.0,2.0,85,0.00,,,0.01,162.000000,,2013-08-31 15:25:00,
2013-08-31 08:55:00,57.0,53.0,-100.00,ESE,122,0.0,2.0,85,0.00,,,0.01,162.000000,,2013-08-31 15:55:00,
2013-08-31 09:04:00,57.0,53.0,-100.00,ESE,122,0.0,2.0,85,0.00,,,0.01,162.000000,,2013-08-31 16:04:00,
2013-08-31 09:13:00,57.0,53.0,-100.00,ESE,122,0.0,2.0,85,0.00,,,0.01,162.000000,,2013-08-31 16:13:00,
2013-08-31 09:52:00,60.0,52.0,-100.00,NNW,329,0.0,3.0,76,0.00,,,0.01,354.000000,,2013-08-31 16:52:00,
2013-08-31 10:03:00,60.0,52.0,-100.00,NNW,329,0.0,3.0,76,0.00,,,0.01,354.000000,,2013-08-31 17:03:00,
2013-08-31 10:12:00,60.0,52.0,-100.00,NNW,329,0.0,3.0,76,0.00,,,0.01,354.000000,,2013-08-31 17:12:00,
2013-08-31 10:23:00,60.0,52.0,-100.00,NNW,329,0.0,3.0,76,0.00,,,0.01,354.000000,,2013-08-31 17:23:00,
2013-08-31 10:53:00,62.0,53.0,-100.00,NW,326,2.0,4.0,72,0.00,,,0.01,502.000000,,2013-08-31 17:53:00,
2013-08-31 11:02:00,62.0,53.0,-100.00,NW,326,2.0,4.0,72,0.00,,,0.01,502.000000,,2013-08-31 18:02:00,
2013-08-31 11:12:00,62.0,53.0,-100.00,NW,326,2.0,4.0,72,0.00,,,0.01,502.000000,,2013-08-31 18:12:00,
2013-08-31 11:21:00,62.0,53.0,-100.00,NW,326,2.0,4.0,72,0.00,,,0.01,502.000000,,2013-08-31 18:21:00,
2013-08-31 11:52:00,64.0,52.0,-100.00,NNW,339,2.0,6.0,66,0.00,,,0.01,629.000000,,2013-08-31 18:52:00,
2013-08-31 12:01:00,64.0,52.0,-100.00,NNW,339,2.0,6.0,66,0.00,,,0.01,629.000000,,2013-08-31 19:01:00,
2013-08-31 12:12:00,64.0,52.0,-100.00,NNW,339,2.0,6.0,66,0.00,,,0.01,629.000000,,2013-08-31 19:12:00,
2013-08-31 12:21:00,64.0,52.0,-100.00,NNW,339,2.0,6.0,66,0.00,,,0.01,629.000000,,2013-08-31 19:21:00,
2013-08-31 12:52:00,67.0,52.0,-100.00,NW,318,3.0,8.0,59,0.00,,,0.01,719.000000,,2013-08-31 19:52:00,
2013-08-31 13:02:00,67.0,52.0,-100.00,NW,318,3.0,8.0,59,0.00,,,0.01,719.000000,,2013-08-31 20:02:00,
2013-08-31 13:12:00,67.0,52.0,-100.00,NW,318,3.0,8.0,59,0.00,,,0.01,719.000000,,2013-08-31 20:12:00,
2013-08-31 13:22:00,67.0,52.0,-100.00,NW,318,3.0,8.0,59,0.00,,,0.01,719.000000,,2013-08-31 20:22:00,
2013-08-31 13:52:00,67.0,53.0,-100.00,NNW,331,4.0,10.0,61,0.00,,,0.01,764.000000,,2013-08-31 20:52:00,
2013-08-31 14:02:00,67.0,53.0,-100.00,NNW,331,4.0,10.0,61,0.00,,,0.01,764.000000,,2013-08-31 21:02:00,
2013-08-31 14:12:00,67.0,53.0,-100.00,NNW,331,4.0,10.0,61,0.00,,,0.01,764.000000,,2013-08-31 21:12:00,
2013-08-31 14:22:00,67.0,53.0,-100.00,NNW,331,4.0,10.0,61,0.00,,,0.01,764.000000,,2013-08-31 21:22:00,
2013-08-31 14:54:00,69.0,55.0,-100.00,NNW,327,4.0,10.0,61,0.00,,,0.01,756.000000,,2013-08-31 21:54:00,
2013-08-31 15:04:00,69.0,55.0,-100.00,NNW,327,4.0,10.0,61,0.00,,,0.01,756.000000,,2013-08-31 22:04:00,
2013-08-31 15:13:00,69.0,55.0,-100.00,NNW,327,4.0,10.0,61,0.00,,,0.01,756.000000,,2013-08-31 22:13:00,
2013-08-31 15:23:00,69.0,55.0,-100.00,NNW,327,4.0,10.0,61,0.00,,,0.01,756.000000,,2013-08-31 22:23:00,
2013-08-31 15:53:00,70.0,55.0,-100.00,NW,321,5.0,10.0,60,0.00,,,0.01,699.000000,,2013-08-31 22:53:00,
2013-08-31 16:03:00,70.0,55.0,-100.00,NW,321,5.0,10.0,60,0.00,,,0.01,699.000000,,2013-08-31 23:03:00,
2013-08-31 16:12:00,70.0,55.0,-100.00,NW,321,5.0,10.0,60,0.00,,,0.01,699.000000,,2013-08-31 23:12:00,
2013-08-31 16:22:00,70.0,55.0,-100.00,NW,321,5.0,10.0,60,0.00,,,0.01,699.000000,,2013-08-31 23:22:00,
2013-08-31 16:52:00,71.0,56.0,-100.00,WNW,299,5.0,9.0,59,0.00,,,0.01,601.000000,,2013-08-31 23:52:00,
2013-08-31 17:01:00,71.0,56.0,-100.00,WNW,299,5.0,9.0,59,0.00,,,0.01,601.000000,,2013-09-01 00:01:00,
2013-08-31 17:11:00,71.0,56.0,-100.00,WNW,299,5.0,9.0,59,0.00,,,0.01,601.000000,,2013-09-01 00:11:00,
2013-08-31 17:21:00,71.0,56.0,-100.00,WNW,299,5.0,9.0,59,0.00,,,0.01,601.000000,,2013-09-01 00:21:00,
2013-08-31 18:21:00,72.0,56.0,-100.00,WNW,295,4.0,10.0,58,0.00,,,0.01,464.000000,,2013-09-01 01:21:00,
2013-08-31 20:22:00,68.0,54.0,-100.00,West,269,4.0,6.0,62,0.00,,,0.01,140.000000,,2013-09-01 03:22:00,
2013-08-31 21:03:00,-999.0,-99.9,-100.00,ESE,111,2.0,6.0,-999,-99.99,,,-99.99,13.000000,,2013-09-01 04:03:00,
2013-08-31 22:22:00,60.0,54.0,-100.00,SSW,193,0.0,4.0,81,0.00,,,0.01,0.000000,,2013-09-01 05:22:00,
2013-08-31 22:52:00,60.0,55.0,-100.00,SE,125,1.0,3.0,83,0.00,,,0.01,0.000000,,2013-09-01 05:52:00,
2013-08-31 23:02:00,60.0,55.0,-100.00,SE,125,1.0,3.0,83,0.00,,,0.01,0.000000,,2013-09-01 06:02:00,
2013-08-31 23:12:00,60.0,55.0,-100.00,SE,125,1.0,3.0,83,0.00,,,0.01,0.000000,,2013-09-01 06:12:00,
2013-08-31 23:52:00,59.0,54.0,-100.00,East,99,2.0,4.0,84,0.00,,,0.01,0.000000,,2013-09-01 06:52:00,